sensor_id;sensor_type;location;lat;lon;timestamp;P1;durP1;ratioP1;P2;durP2;ratioP2
66702;SDS011;60933;46.398;-63.798;2022-08-19T00:02:12;3.70;;;1.48;;
66702;SDS011;60933;46.398;-63.798;2022-08-19T00:04:38;3.00;;;1.40;;
66702;SDS011;60933;46.398;-63.798;2022-08-19T00:07:06;5.20;;;1.55;;
66702;SDS011;60933;46.398;-63.798;2022-08-19T00:09:32;3.97;;;1.63;;
66702;SDS011;60933;46.398;-63.798;2022-08-19T00:11:59;3.67;;;1.30;;
66702;SDS011;60933;46.398;-63.798;2022-08-19T00:14:26;5.05;;;1.98;;
66702;SDS011;60933;46.398;-63.798;2022-08-19T00:16:55;2.60;;;1.25;;
66702;SDS011;60933;46.398;-63.798;2022-08-19T00:19:22;3.47;;;1.40;;
66702;SDS011;60933;46.398;-63.798;2022-08-19T00:21:49;2.67;;;1.58;;
66702;SDS011;60933;46.398;-63.798;2022-08-19T00:24:16;7.65;;;2.00;;
66702;SDS011;60933;46.398;-63.798;2022-08-19T00:26:42;4.53;;;2.03;;
66702;SDS011;60933;46.398;-63.798;2022-08-19T00:29:11;4.90;;;1.90;;
66702;SDS011;60933;46.398;-63.798;2022-08-19T00:31:38;4.60;;;2.00;;
66702;SDS011;60933;46.398;-63.798;2022-08-19T00:34:06;5.68;;;1.63;;
66702;SDS011;60933;46.398;-63.798;2022-08-19T00:36:33;3.38;;;1.90;;
66702;SDS011;60933;46.398;-63.798;2022-08-19T00:38:59;2.88;;;1.30;;
66702;SDS011;60933;46.398;-63.798;2022-08-19T00:41:26;4.10;;;1.80;;
66702;SDS011;60933;46.398;-63.798;2022-08-19T00:43:59;5.28;;;2.05;;
66702;SDS011;60933;46.398;-63.798;2022-08-19T00:46:34;3.92;;;1.40;;
66702;SDS011;60933;46.398;-63.798;2022-08-19T00:49:04;4.28;;;1.67;;
66702;SDS011;60933;46.398;-63.798;2022-08-19T00:51:35;2.63;;;1.50;;
66702;SDS011;60933;46.398;-63.798;2022-08-19T00:54:01;3.13;;;1.48;;
66702;SDS011;60933;46.398;-63.798;2022-08-19T00:56:28;4.88;;;1.90;;
66702;SDS011;60933;46.398;-63.798;2022-08-19T00:58:56;3.20;;;1.38;;
66702;SDS011;60933;46.398;-63.798;2022-08-19T01:01:24;3.15;;;1.50;;
66702;SDS011;60933;46.398;-63.798;2022-08-19T01:03:50;4.13;;;1.80;;
66702;SDS011;60933;46.398;-63.798;2022-08-19T01:06:16;4.18;;;1.80;;
66702;SDS011;60933;46.398;-63.798;2022-08-19T01:08:42;4.05;;;2.08;;
66702;SDS011;60933;46.398;-63.798;2022-08-19T01:11:09;4.88;;;1.80;;
66702;SDS011;60933;46.398;-63.798;2022-08-19T01:13:35;4.28;;;1.45;;
66702;SDS011;60933;46.398;-63.798;2022-08-19T01:16:06;2.25;;;1.40;;
66702;SDS011;60933;46.398;-63.798;2022-08-19T01:18:40;2.08;;;1.23;;
66702;SDS011;60933;46.398;-63.798;2022-08-19T01:21:11;3.88;;;2.08;;
66702;SDS011;60933;46.398;-63.798;2022-08-19T01:23:56;2.92;;;1.48;;
66702;SDS011;60933;46.398;-63.798;2022-08-19T01:26:23;3.30;;;1.58;;
66702;SDS011;60933;46.398;-63.798;2022-08-19T01:28:51;2.83;;;1.70;;
66702;SDS011;60933;46.398;-63.798;2022-08-19T01:31:22;2.97;;;1.63;;
66702;SDS011;60933;46.398;-63.798;2022-08-19T01:33:51;2.55;;;1.48;;
66702;SDS011;60933;46.398;-63.798;2022-08-19T01:39:00;2.90;;;1.75;;
66702;SDS011;60933;46.398;-63.798;2022-08-19T01:44:03;2.28;;;1.40;;
66702;SDS011;60933;46.398;-63.798;2022-08-19T01:46:31;3.55;;;1.40;;
66702;SDS011;60933;46.398;-63.798;2022-08-19T01:48:57;2.97;;;1.38;;
66702;SDS011;60933;46.398;-63.798;2022-08-19T01:51:24;4.18;;;2.28;;
66702;SDS011;60933;46.398;-63.798;2022-08-19T01:53:51;2.25;;;1.25;;
66702;SDS011;60933;46.398;-63.798;2022-08-19T01:56:18;4.18;;;1.40;;
66702;SDS011;60933;46.398;-63.798;2022-08-19T01:58:49;3.40;;;1.33;;
66702;SDS011;60933;46.398;-63.798;2022-08-19T02:01:21;3.63;;;1.33;;
66702;SDS011;60933;46.398;-63.798;2022-08-19T02:03:47;3.20;;;1.42;;
66702;SDS011;60933;46.398;-63.798;2022-08-19T02:06:14;3.08;;;1.48;;
66702;SDS011;60933;46.398;-63.798;2022-08-19T02:08:42;3.25;;;1.25;;
66702;SDS011;60933;46.398;-63.798;2022-08-19T02:11:17;4.10;;;1.55;;
66702;SDS011;60933;46.398;-63.798;2022-08-19T02:13:48;2.53;;;1.05;;
66702;SDS011;60933;46.398;-63.798;2022-08-19T02:16:16;2.97;;;1.42;;
66702;SDS011;60933;46.398;-63.798;2022-08-19T02:18:44;2.42;;;1.30;;
66702;SDS011;60933;46.398;-63.798;2022-08-19T02:21:10;2.80;;;1.00;;
66702;SDS011;60933;46.398;-63.798;2022-08-19T02:23:37;1.80;;;1.15;;
66702;SDS011;60933;46.398;-63.798;2022-08-19T02:26:03;2.75;;;1.38;;
66702;SDS011;60933;46.398;-63.798;2022-08-19T02:28:29;2.67;;;1.50;;
66702;SDS011;60933;46.398;-63.798;2022-08-19T02:30:57;2.47;;;1.38;;
66702;SDS011;60933;46.398;-63.798;2022-08-19T02:33:26;1.90;;;1.20;;
66702;SDS011;60933;46.398;-63.798;2022-08-19T02:35:52;2.78;;;1.15;;
66702;SDS011;60933;46.398;-63.798;2022-08-19T02:38:18;2.92;;;1.35;;
66702;SDS011;60933;46.398;-63.798;2022-08-19T02:40:51;2.67;;;1.50;;
66702;SDS011;60933;46.398;-63.798;2022-08-19T02:43:19;3.92;;;1.52;;
66702;SDS011;60933;46.398;-63.798;2022-08-19T02:45:46;3.83;;;1.50;;
66702;SDS011;60933;46.398;-63.798;2022-08-19T02:48:17;3.30;;;1.40;;
66702;SDS011;60933;46.398;-63.798;2022-08-19T02:50:45;2.15;;;1.40;;
66702;SDS011;60933;46.398;-63.798;2022-08-19T02:53:12;3.05;;;1.17;;
66702;SDS011;60933;46.398;-63.798;2022-08-19T02:55:42;2.28;;;1.20;;
66702;SDS011;60933;46.398;-63.798;2022-08-19T02:58:11;2.78;;;1.20;;
66702;SDS011;60933;46.398;-63.798;2022-08-19T03:00:42;2.47;;;1.40;;
66702;SDS011;60933;46.398;-63.798;2022-08-19T03:03:13;2.45;;;1.20;;
66702;SDS011;60933;46.398;-63.798;2022-08-19T03:05:39;3.55;;;1.77;;
66702;SDS011;60933;46.398;-63.798;2022-08-19T03:08:07;3.92;;;1.27;;
66702;SDS011;60933;46.398;-63.798;2022-08-19T03:10:39;2.42;;;1.25;;
66702;SDS011;60933;46.398;-63.798;2022-08-19T03:13:11;3.92;;;1.40;;
66702;SDS011;60933;46.398;-63.798;2022-08-19T03:15:39;2.80;;;1.15;;
66702;SDS011;60933;46.398;-63.798;2022-08-19T03:18:06;2.78;;;1.30;;
66702;SDS011;60933;46.398;-63.798;2022-08-19T03:20:32;1.77;;;1.15;;
66702;SDS011;60933;46.398;-63.798;2022-08-19T03:22:58;1.92;;;1.25;;
66702;SDS011;60933;46.398;-63.798;2022-08-19T03:25:24;3.47;;;1.48;;
66702;SDS011;60933;46.398;-63.798;2022-08-19T03:27:51;2.38;;;0.93;;
66702;SDS011;60933;46.398;-63.798;2022-08-19T03:30:17;3.25;;;1.30;;
66702;SDS011;60933;46.398;-63.798;2022-08-19T03:32:43;1.88;;;1.02;;
66702;SDS011;60933;46.398;-63.798;2022-08-19T03:35:09;2.97;;;1.40;;
66702;SDS011;60933;46.398;-63.798;2022-08-19T03:37:35;3.17;;;1.25;;
66702;SDS011;60933;46.398;-63.798;2022-08-19T03:40:01;3.28;;;1.88;;
66702;SDS011;60933;46.398;-63.798;2022-08-19T03:42:28;2.03;;;1.10;;
66702;SDS011;60933;46.398;-63.798;2022-08-19T03:44:55;2.60;;;1.30;;
66702;SDS011;60933;46.398;-63.798;2022-08-19T03:47:21;3.17;;;1.45;;
66702;SDS011;60933;46.398;-63.798;2022-08-19T03:49:47;1.92;;;1.17;;
66702;SDS011;60933;46.398;-63.798;2022-08-19T03:52:13;3.72;;;1.42;;
66702;SDS011;60933;46.398;-63.798;2022-08-19T03:54:39;2.22;;;1.30;;
66702;SDS011;60933;46.398;-63.798;2022-08-19T03:57:06;3.70;;;1.13;;
66702;SDS011;60933;46.398;-63.798;2022-08-19T03:59:33;3.20;;;1.40;;
66702;SDS011;60933;46.398;-63.798;2022-08-19T04:02:02;3.63;;;1.50;;
66702;SDS011;60933;46.398;-63.798;2022-08-19T04:04:34;2.20;;;1.25;;
66702;SDS011;60933;46.398;-63.798;2022-08-19T04:07:02;4.60;;;1.42;;
66702;SDS011;60933;46.398;-63.798;2022-08-19T04:09:28;3.63;;;1.50;;
66702;SDS011;60933;46.398;-63.798;2022-08-19T04:11:54;6.03;;;2.22;;
66702;SDS011;60933;46.398;-63.798;2022-08-19T04:14:23;2.20;;;1.13;;
66702;SDS011;60933;46.398;-63.798;2022-08-19T04:16:55;4.57;;;1.42;;
66702;SDS011;60933;46.398;-63.798;2022-08-19T04:19:21;4.22;;;1.27;;
66702;SDS011;60933;46.398;-63.798;2022-08-19T04:21:49;2.97;;;1.38;;
66702;SDS011;60933;46.398;-63.798;2022-08-19T04:24:17;2.70;;;1.48;;
66702;SDS011;60933;46.398;-63.798;2022-08-19T04:26:44;2.90;;;1.13;;
66702;SDS011;60933;46.398;-63.798;2022-08-19T04:29:13;5.50;;;1.50;;
66702;SDS011;60933;46.398;-63.798;2022-08-19T04:31:42;3.53;;;1.17;;
66702;SDS011;60933;46.398;-63.798;2022-08-19T04:34:10;3.60;;;1.20;;
66702;SDS011;60933;46.398;-63.798;2022-08-19T04:36:38;3.05;;;1.45;;
66702;SDS011;60933;46.398;-63.798;2022-08-19T04:39:10;3.40;;;1.30;;
66702;SDS011;60933;46.398;-63.798;2022-08-19T04:41:39;2.08;;;1.00;;
66702;SDS011;60933;46.398;-63.798;2022-08-19T04:44:24;3.00;;;2.17;;
66702;SDS011;60933;46.398;-63.798;2022-08-19T04:46:50;1.95;;;0.80;;
66702;SDS011;60933;46.398;-63.798;2022-08-19T04:49:20;2.97;;;1.25;;
66702;SDS011;60933;46.398;-63.798;2022-08-19T04:51:48;2.85;;;0.90;;
66702;SDS011;60933;46.398;-63.798;2022-08-19T04:54:19;1.67;;;0.90;;
66702;SDS011;60933;46.398;-63.798;2022-08-19T04:56:50;2.63;;;1.00;;
66702;SDS011;60933;46.398;-63.798;2022-08-19T04:59:18;2.67;;;0.90;;
66702;SDS011;60933;46.398;-63.798;2022-08-19T05:01:45;2.55;;;1.65;;
66702;SDS011;60933;46.398;-63.798;2022-08-19T05:04:15;3.83;;;1.20;;
66702;SDS011;60933;46.398;-63.798;2022-08-19T05:06:44;2.50;;;1.05;;
66702;SDS011;60933;46.398;-63.798;2022-08-19T05:09:12;3.00;;;0.93;;
66702;SDS011;60933;46.398;-63.798;2022-08-19T05:11:39;1.85;;;0.90;;
66702;SDS011;60933;46.398;-63.798;2022-08-19T05:14:05;2.45;;;0.82;;
66702;SDS011;60933;46.398;-63.798;2022-08-19T05:16:33;2.50;;;0.80;;
66702;SDS011;60933;46.398;-63.798;2022-08-19T05:18:59;1.88;;;0.70;;
66702;SDS011;60933;46.398;-63.798;2022-08-19T05:21:54;3.13;;;0.90;;
66702;SDS011;60933;46.398;-63.798;2022-08-19T05:24:39;1.27;;;1.00;;
66702;SDS011;60933;46.398;-63.798;2022-08-19T05:27:05;2.40;;;1.20;;
66702;SDS011;60933;46.398;-63.798;2022-08-19T05:29:32;3.40;;;0.82;;
66702;SDS011;60933;46.398;-63.798;2022-08-19T05:32:00;1.77;;;1.42;;
66702;SDS011;60933;46.398;-63.798;2022-08-19T05:34:27;2.38;;;0.93;;
66702;SDS011;60933;46.398;-63.798;2022-08-19T05:36:55;2.33;;;0.60;;
66702;SDS011;60933;46.398;-63.798;2022-08-19T05:39:24;1.98;;;1.20;;
66702;SDS011;60933;46.398;-63.798;2022-08-19T05:41:53;2.55;;;1.00;;
66702;SDS011;60933;46.398;-63.798;2022-08-19T05:44:22;2.33;;;0.82;;
66702;SDS011;60933;46.398;-63.798;2022-08-19T05:46:50;2.10;;;0.70;;
66702;SDS011;60933;46.398;-63.798;2022-08-19T05:49:20;2.22;;;0.65;;
66702;SDS011;60933;46.398;-63.798;2022-08-19T05:51:48;1.45;;;0.45;;
66702;SDS011;60933;46.398;-63.798;2022-08-19T05:54:14;1.50;;;0.43;;
66702;SDS011;60933;46.398;-63.798;2022-08-19T05:56:42;1.05;;;0.50;;
66702;SDS011;60933;46.398;-63.798;2022-08-19T05:59:10;2.50;;;0.65;;
66702;SDS011;60933;46.398;-63.798;2022-08-19T06:01:37;1.27;;;0.50;;
66702;SDS011;60933;46.398;-63.798;2022-08-19T06:04:05;2.47;;;1.20;;
66702;SDS011;60933;46.398;-63.798;2022-08-19T06:06:32;1.67;;;0.38;;
66702;SDS011;60933;46.398;-63.798;2022-08-19T06:09:00;2.42;;;0.75;;
66702;SDS011;60933;46.398;-63.798;2022-08-19T06:11:32;2.63;;;0.65;;
66702;SDS011;60933;46.398;-63.798;2022-08-19T06:14:03;1.42;;;0.60;;
66702;SDS011;60933;46.398;-63.798;2022-08-19T06:16:34;2.33;;;0.60;;
66702;SDS011;60933;46.398;-63.798;2022-08-19T06:19:02;1.23;;;0.52;;
66702;SDS011;60933;46.398;-63.798;2022-08-19T06:21:31;1.23;;;0.57;;
66702;SDS011;60933;46.398;-63.798;2022-08-19T06:23:58;3.38;;;0.52;;
66702;SDS011;60933;46.398;-63.798;2022-08-19T06:26:25;1.08;;;0.60;;
66702;SDS011;60933;46.398;-63.798;2022-08-19T06:28:51;2.15;;;0.52;;
66702;SDS011;60933;46.398;-63.798;2022-08-19T06:31:19;0.75;;;0.35;;
66702;SDS011;60933;46.398;-63.798;2022-08-19T06:33:49;2.17;;;0.65;;
66702;SDS011;60933;46.398;-63.798;2022-08-19T06:36:16;0.68;;;0.30;;
66702;SDS011;60933;46.398;-63.798;2022-08-19T06:38:43;1.08;;;0.50;;
66702;SDS011;60933;46.398;-63.798;2022-08-19T06:41:09;1.60;;;0.47;;
66702;SDS011;60933;46.398;-63.798;2022-08-19T06:43:36;1.13;;;0.50;;
66702;SDS011;60933;46.398;-63.798;2022-08-19T06:46:02;1.15;;;0.30;;
66702;SDS011;60933;46.398;-63.798;2022-08-19T06:48:29;1.13;;;1.08;;
66702;SDS011;60933;46.398;-63.798;2022-08-19T06:50:56;0.75;;;0.43;;
66702;SDS011;60933;46.398;-63.798;2022-08-19T06:53:22;1.13;;;0.50;;
66702;SDS011;60933;46.398;-63.798;2022-08-19T06:55:48;0.80;;;0.40;;
66702;SDS011;60933;46.398;-63.798;2022-08-19T06:58:22;1.95;;;0.43;;
66702;SDS011;60933;46.398;-63.798;2022-08-19T07:00:48;1.73;;;0.50;;
66702;SDS011;60933;46.398;-63.798;2022-08-19T07:03:16;0.98;;;0.40;;
66702;SDS011;60933;46.398;-63.798;2022-08-19T07:05:42;1.88;;;0.50;;
66702;SDS011;60933;46.398;-63.798;2022-08-19T07:08:09;1.15;;;0.30;;
66702;SDS011;60933;46.398;-63.798;2022-08-19T07:10:35;2.20;;;0.30;;
66702;SDS011;60933;46.398;-63.798;2022-08-19T07:13:02;1.08;;;0.38;;
66702;SDS011;60933;46.398;-63.798;2022-08-19T07:15:28;0.70;;;0.30;;
66702;SDS011;60933;46.398;-63.798;2022-08-19T07:17:55;1.30;;;0.30;;
66702;SDS011;60933;46.398;-63.798;2022-08-19T07:20:22;1.85;;;0.40;;
66702;SDS011;60933;46.398;-63.798;2022-08-19T07:22:48;0.65;;;0.40;;
66702;SDS011;60933;46.398;-63.798;2022-08-19T07:25:16;1.58;;;0.30;;
66702;SDS011;60933;46.398;-63.798;2022-08-19T07:27:43;1.80;;;0.50;;
66702;SDS011;60933;46.398;-63.798;2022-08-19T07:30:09;4.07;;;0.55;;
66702;SDS011;60933;46.398;-63.798;2022-08-19T07:32:37;1.05;;;0.45;;
66702;SDS011;60933;46.398;-63.798;2022-08-19T07:35:03;1.60;;;0.43;;
66702;SDS011;60933;46.398;-63.798;2022-08-19T07:37:30;2.20;;;0.57;;
66702;SDS011;60933;46.398;-63.798;2022-08-19T07:39:57;0.60;;;0.30;;
66702;SDS011;60933;46.398;-63.798;2022-08-19T07:42:23;1.33;;;0.57;;
66702;SDS011;60933;46.398;-63.798;2022-08-19T07:44:49;2.13;;;0.63;;
66702;SDS011;60933;46.398;-63.798;2022-08-19T07:47:15;1.13;;;0.30;;
66702;SDS011;60933;46.398;-63.798;2022-08-19T07:49:42;0.95;;;0.30;;
66702;SDS011;60933;46.398;-63.798;2022-08-19T07:52:09;0.85;;;0.30;;
66702;SDS011;60933;46.398;-63.798;2022-08-19T07:54:36;0.70;;;0.22;;
66702;SDS011;60933;46.398;-63.798;2022-08-19T07:57:03;0.95;;;0.40;;
66702;SDS011;60933;46.398;-63.798;2022-08-19T07:59:30;0.70;;;0.20;;
66702;SDS011;60933;46.398;-63.798;2022-08-19T08:01:56;0.70;;;0.30;;
66702;SDS011;60933;46.398;-63.798;2022-08-19T08:04:25;0.60;;;0.30;;
66702;SDS011;60933;46.398;-63.798;2022-08-19T08:07:10;1.42;;;0.20;;
66702;SDS011;60933;46.398;-63.798;2022-08-19T08:09:55;1.33;;;0.30;;
66702;SDS011;60933;46.398;-63.798;2022-08-19T08:12:22;1.63;;;0.80;;
66702;SDS011;60933;46.398;-63.798;2022-08-19T08:14:54;1.92;;;0.90;;
66702;SDS011;60933;46.398;-63.798;2022-08-19T08:17:24;1.05;;;0.28;;
66702;SDS011;60933;46.398;-63.798;2022-08-19T08:19:52;1.23;;;0.22;;
66702;SDS011;60933;46.398;-63.798;2022-08-19T08:22:20;1.17;;;0.35;;
66702;SDS011;60933;46.398;-63.798;2022-08-19T08:25:07;1.45;;;1.35;;
66702;SDS011;60933;46.398;-63.798;2022-08-19T08:27:39;0.93;;;0.40;;
66702;SDS011;60933;46.398;-63.798;2022-08-19T08:30:24;1.17;;;0.40;;
66702;SDS011;60933;46.398;-63.798;2022-08-19T08:32:51;0.60;;;0.50;;
66702;SDS011;60933;46.398;-63.798;2022-08-19T08:35:19;1.17;;;1.08;;
66702;SDS011;60933;46.398;-63.798;2022-08-19T08:37:47;1.25;;;0.43;;
66702;SDS011;60933;46.398;-63.798;2022-08-19T08:42:58;0.75;;;0.30;;
66702;SDS011;60933;46.398;-63.798;2022-08-19T08:45:35;1.90;;;0.30;;
66702;SDS011;60933;46.398;-63.798;2022-08-19T08:48:32;0.95;;;0.13;;
66702;SDS011;60933;46.398;-63.798;2022-08-19T08:51:00;2.72;;;0.43;;
66702;SDS011;60933;46.398;-63.798;2022-08-19T08:53:30;1.65;;;0.20;;
66702;SDS011;60933;46.398;-63.798;2022-08-19T08:56:00;1.02;;;0.20;;
66702;SDS011;60933;46.398;-63.798;2022-08-19T08:58:51;0.75;;;0.40;;
66702;SDS011;60933;46.398;-63.798;2022-08-19T09:01:19;1.55;;;0.60;;
66702;SDS011;60933;46.398;-63.798;2022-08-19T09:03:45;0.90;;;0.28;;
66702;SDS011;60933;46.398;-63.798;2022-08-19T09:06:19;1.45;;;0.55;;
66702;SDS011;60933;46.398;-63.798;2022-08-19T09:08:54;1.25;;;0.20;;
66702;SDS011;60933;46.398;-63.798;2022-08-19T09:17:03;0.93;;;0.28;;
66702;SDS011;60933;46.398;-63.798;2022-08-19T09:19:33;0.45;;;0.20;;
66702;SDS011;60933;46.398;-63.798;2022-08-19T09:22:01;0.35;;;0.20;;
66702;SDS011;60933;46.398;-63.798;2022-08-19T09:24:27;2.00;;;0.20;;
66702;SDS011;60933;46.398;-63.798;2022-08-19T09:26:53;2.40;;;0.63;;
66702;SDS011;60933;46.398;-63.798;2022-08-19T09:29:20;1.60;;;0.13;;
66702;SDS011;60933;46.398;-63.798;2022-08-19T09:31:46;1.55;;;0.30;;
66702;SDS011;60933;46.398;-63.798;2022-08-19T09:34:12;6.95;;;0.73;;
66702;SDS011;60933;46.398;-63.798;2022-08-19T09:36:38;1.40;;;0.82;;
66702;SDS011;60933;46.398;-63.798;2022-08-19T09:39:05;0.82;;;0.28;;
66702;SDS011;60933;46.398;-63.798;2022-08-19T09:41:31;3.60;;;0.40;;
66702;SDS011;60933;46.398;-63.798;2022-08-19T09:43:58;0.50;;;0.28;;
66702;SDS011;60933;46.398;-63.798;2022-08-19T09:46:26;0.30;;;0.10;;
66702;SDS011;60933;46.398;-63.798;2022-08-19T09:48:53;1.00;;;0.20;;
66702;SDS011;60933;46.398;-63.798;2022-08-19T09:51:23;1.95;;;0.55;;
66702;SDS011;60933;46.398;-63.798;2022-08-19T09:53:51;0.60;;;0.20;;
66702;SDS011;60933;46.398;-63.798;2022-08-19T09:56:21;0.88;;;0.20;;
66702;SDS011;60933;46.398;-63.798;2022-08-19T09:58:48;0.93;;;0.20;;
66702;SDS011;60933;46.398;-63.798;2022-08-19T10:01:32;1.42;;;0.20;;
66702;SDS011;60933;46.398;-63.798;2022-08-19T10:03:59;0.55;;;0.20;;
66702;SDS011;60933;46.398;-63.798;2022-08-19T10:06:27;1.30;;;0.60;;
66702;SDS011;60933;46.398;-63.798;2022-08-19T10:08:58;1.17;;;0.10;;
66702;SDS011;60933;46.398;-63.798;2022-08-19T10:11:25;1.85;;;0.20;;
66702;SDS011;60933;46.398;-63.798;2022-08-19T10:13:51;1.25;;;0.10;;
66702;SDS011;60933;46.398;-63.798;2022-08-19T10:16:19;0.57;;;0.20;;
66702;SDS011;60933;46.398;-63.798;2022-08-19T10:18:47;0.60;;;0.10;;
66702;SDS011;60933;46.398;-63.798;2022-08-19T10:21:16;0.60;;;0.60;;
66702;SDS011;60933;46.398;-63.798;2022-08-19T10:23:45;0.70;;;0.17;;
66702;SDS011;60933;46.398;-63.798;2022-08-19T10:26:14;1.73;;;0.30;;
66702;SDS011;60933;46.398;-63.798;2022-08-19T10:28:43;1.38;;;0.30;;
66702;SDS011;60933;46.398;-63.798;2022-08-19T10:31:13;1.23;;;0.20;;
66702;SDS011;60933;46.398;-63.798;2022-08-19T10:33:42;0.73;;;0.20;;
66702;SDS011;60933;46.398;-63.798;2022-08-19T10:36:12;0.40;;;0.10;;
66702;SDS011;60933;46.398;-63.798;2022-08-19T10:38:43;2.08;;;0.17;;
66702;SDS011;60933;46.398;-63.798;2022-08-19T10:41:13;2.53;;;0.20;;
66702;SDS011;60933;46.398;-63.798;2022-08-19T10:43:39;2.33;;;0.20;;
66702;SDS011;60933;46.398;-63.798;2022-08-19T10:46:07;0.60;;;0.30;;
66702;SDS011;60933;46.398;-63.798;2022-08-19T10:48:35;1.27;;;0.30;;
66702;SDS011;60933;46.398;-63.798;2022-08-19T10:51:02;0.75;;;0.75;;
66702;SDS011;60933;46.398;-63.798;2022-08-19T10:53:47;1.10;;;0.50;;
66702;SDS011;60933;46.398;-63.798;2022-08-19T10:56:14;2.13;;;0.20;;
66702;SDS011;60933;46.398;-63.798;2022-08-19T10:58:58;1.05;;;0.20;;
66702;SDS011;60933;46.398;-63.798;2022-08-19T11:01:27;2.15;;;0.80;;
66702;SDS011;60933;46.398;-63.798;2022-08-19T11:03:55;0.60;;;0.25;;
66702;SDS011;60933;46.398;-63.798;2022-08-19T11:06:22;2.15;;;0.40;;
66702;SDS011;60933;46.398;-63.798;2022-08-19T11:08:55;1.25;;;0.90;;
66702;SDS011;60933;46.398;-63.798;2022-08-19T11:11:21;1.30;;;0.30;;
66702;SDS011;60933;46.398;-63.798;2022-08-19T11:13:48;1.10;;;0.40;;
66702;SDS011;60933;46.398;-63.798;2022-08-19T11:16:16;0.20;;;0.20;;
66702;SDS011;60933;46.398;-63.798;2022-08-19T11:18:46;0.57;;;0.30;;
66702;SDS011;60933;46.398;-63.798;2022-08-19T11:21:16;0.63;;;0.20;;
66702;SDS011;60933;46.398;-63.798;2022-08-19T11:23:49;1.17;;;0.43;;
66702;SDS011;60933;46.398;-63.798;2022-08-19T11:26:18;1.77;;;0.30;;
66702;SDS011;60933;46.398;-63.798;2022-08-19T11:28:46;1.08;;;0.30;;
66702;SDS011;60933;46.398;-63.798;2022-08-19T11:31:14;0.57;;;0.30;;
66702;SDS011;60933;46.398;-63.798;2022-08-19T11:33:43;1.88;;;0.50;;
66702;SDS011;60933;46.398;-63.798;2022-08-19T11:36:09;1.27;;;0.45;;
66702;SDS011;60933;46.398;-63.798;2022-08-19T11:38:36;1.17;;;0.40;;
66702;SDS011;60933;46.398;-63.798;2022-08-19T11:41:04;1.88;;;0.50;;
66702;SDS011;60933;46.398;-63.798;2022-08-19T11:43:35;0.68;;;0.55;;
66702;SDS011;60933;46.398;-63.798;2022-08-19T11:46:08;0.55;;;0.30;;
66702;SDS011;60933;46.398;-63.798;2022-08-19T11:48:37;1.58;;;0.40;;
66702;SDS011;60933;46.398;-63.798;2022-08-19T11:51:13;1.20;;;0.40;;
66702;SDS011;60933;46.398;-63.798;2022-08-19T11:53:43;0.65;;;0.30;;
66702;SDS011;60933;46.398;-63.798;2022-08-19T11:56:10;2.05;;;0.40;;
66702;SDS011;60933;46.398;-63.798;2022-08-19T11:58:39;0.70;;;0.70;;
66702;SDS011;60933;46.398;-63.798;2022-08-19T12:01:11;0.65;;;0.50;;
66702;SDS011;60933;46.398;-63.798;2022-08-19T12:03:39;1.58;;;0.30;;
66702;SDS011;60933;46.398;-63.798;2022-08-19T12:06:06;1.63;;;0.50;;
66702;SDS011;60933;46.398;-63.798;2022-08-19T12:08:34;1.13;;;1.02;;
66702;SDS011;60933;46.398;-63.798;2022-08-19T12:11:01;0.50;;;0.32;;
66702;SDS011;60933;46.398;-63.798;2022-08-19T12:13:28;1.25;;;0.40;;
66702;SDS011;60933;46.398;-63.798;2022-08-19T12:15:55;1.00;;;0.70;;
66702;SDS011;60933;46.398;-63.798;2022-08-19T12:18:21;1.17;;;0.45;;
66702;SDS011;60933;46.398;-63.798;2022-08-19T12:20:50;1.05;;;0.70;;
66702;SDS011;60933;46.398;-63.798;2022-08-19T12:23:17;1.20;;;0.65;;
66702;SDS011;60933;46.398;-63.798;2022-08-19T12:25:44;1.20;;;0.50;;
66702;SDS011;60933;46.398;-63.798;2022-08-19T12:28:19;1.23;;;0.65;;
66702;SDS011;60933;46.398;-63.798;2022-08-19T12:30:46;0.93;;;0.47;;
66702;SDS011;60933;46.398;-63.798;2022-08-19T12:33:13;1.95;;;0.50;;
66702;SDS011;60933;46.398;-63.798;2022-08-19T12:35:40;2.03;;;0.60;;
66702;SDS011;60933;46.398;-63.798;2022-08-19T12:38:08;1.75;;;0.70;;
66702;SDS011;60933;46.398;-63.798;2022-08-19T12:40:34;1.42;;;0.75;;
66702;SDS011;60933;46.398;-63.798;2022-08-19T12:43:00;1.25;;;0.82;;
66702;SDS011;60933;46.398;-63.798;2022-08-19T12:45:26;2.38;;;1.17;;
66702;SDS011;60933;46.398;-63.798;2022-08-19T12:47:52;1.45;;;0.77;;
66702;SDS011;60933;46.398;-63.798;2022-08-19T12:50:18;1.00;;;0.75;;
66702;SDS011;60933;46.398;-63.798;2022-08-19T12:52:46;0.98;;;0.73;;
66702;SDS011;60933;46.398;-63.798;2022-08-19T12:55:13;2.25;;;1.80;;
66702;SDS011;60933;46.398;-63.798;2022-08-19T12:57:40;1.50;;;1.40;;
66702;SDS011;60933;46.398;-63.798;2022-08-19T13:00:10;2.17;;;1.00;;
66702;SDS011;60933;46.398;-63.798;2022-08-19T13:02:39;0.90;;;0.80;;
66702;SDS011;60933;46.398;-63.798;2022-08-19T13:05:07;1.30;;;0.75;;
66702;SDS011;60933;46.398;-63.798;2022-08-19T13:07:36;1.00;;;0.77;;
66702;SDS011;60933;46.398;-63.798;2022-08-19T13:10:08;3.75;;;1.50;;
66702;SDS011;60933;46.398;-63.798;2022-08-19T13:12:37;1.75;;;0.68;;
66702;SDS011;60933;46.398;-63.798;2022-08-19T13:15:04;1.58;;;0.90;;
66702;SDS011;60933;46.398;-63.798;2022-08-19T13:17:30;1.70;;;1.15;;
66702;SDS011;60933;46.398;-63.798;2022-08-19T13:19:59;1.58;;;0.95;;
66702;SDS011;60933;46.398;-63.798;2022-08-19T13:22:25;3.83;;;1.10;;
66702;SDS011;60933;46.398;-63.798;2022-08-19T13:24:52;1.80;;;1.10;;
66702;SDS011;60933;46.398;-63.798;2022-08-19T13:27:18;1.20;;;0.90;;
66702;SDS011;60933;46.398;-63.798;2022-08-19T13:29:44;2.45;;;1.00;;
66702;SDS011;60933;46.398;-63.798;2022-08-19T13:32:29;1.63;;;1.10;;
66702;SDS011;60933;46.398;-63.798;2022-08-19T13:35:13;1.90;;;1.80;;
66702;SDS011;60933;46.398;-63.798;2022-08-19T13:37:40;1.83;;;0.88;;
66702;SDS011;60933;46.398;-63.798;2022-08-19T13:40:10;2.28;;;0.95;;
66702;SDS011;60933;46.398;-63.798;2022-08-19T13:42:43;2.22;;;0.88;;
66702;SDS011;60933;46.398;-63.798;2022-08-19T13:45:11;3.25;;;1.17;;
66702;SDS011;60933;46.398;-63.798;2022-08-19T13:47:39;1.70;;;1.60;;
66702;SDS011;60933;46.398;-63.798;2022-08-19T13:50:11;2.80;;;1.25;;
66702;SDS011;60933;46.398;-63.798;2022-08-19T13:52:39;1.40;;;0.82;;
66702;SDS011;60933;46.398;-63.798;2022-08-19T13:55:06;1.80;;;0.75;;
66702;SDS011;60933;46.398;-63.798;2022-08-19T13:57:34;2.75;;;1.05;;
66702;SDS011;60933;46.398;-63.798;2022-08-19T14:00:01;2.13;;;1.23;;
66702;SDS011;60933;46.398;-63.798;2022-08-19T14:02:28;3.10;;;0.88;;
66702;SDS011;60933;46.398;-63.798;2022-08-19T14:04:54;1.08;;;0.98;;
66702;SDS011;60933;46.398;-63.798;2022-08-19T14:07:21;1.67;;;0.80;;
66702;SDS011;60933;46.398;-63.798;2022-08-19T14:09:49;3.17;;;1.42;;
66702;SDS011;60933;46.398;-63.798;2022-08-19T14:12:18;2.28;;;0.80;;
66702;SDS011;60933;46.398;-63.798;2022-08-19T14:14:47;1.63;;;0.77;;
66702;SDS011;60933;46.398;-63.798;2022-08-19T14:17:14;2.58;;;1.10;;
66702;SDS011;60933;46.398;-63.798;2022-08-19T14:19:41;2.10;;;1.00;;
66702;SDS011;60933;46.398;-63.798;2022-08-19T14:22:08;1.40;;;1.00;;
66702;SDS011;60933;46.398;-63.798;2022-08-19T14:24:34;1.00;;;0.75;;
66702;SDS011;60933;46.398;-63.798;2022-08-19T14:27:05;2.38;;;1.00;;
66702;SDS011;60933;46.398;-63.798;2022-08-19T14:29:32;2.55;;;1.13;;
66702;SDS011;60933;46.398;-63.798;2022-08-19T14:32:00;2.45;;;0.80;;
66702;SDS011;60933;46.398;-63.798;2022-08-19T14:34:26;2.17;;;1.08;;
66702;SDS011;60933;46.398;-63.798;2022-08-19T14:36:52;2.25;;;1.23;;
66702;SDS011;60933;46.398;-63.798;2022-08-19T14:39:18;2.45;;;0.90;;
66702;SDS011;60933;46.398;-63.798;2022-08-19T14:41:45;1.10;;;0.90;;
66702;SDS011;60933;46.398;-63.798;2022-08-19T14:44:11;2.00;;;1.17;;